createdAt,value
2017-07-25T00:01:08.732Z,1009.3
2017-07-25T00:02:17.616Z,1009.29
2017-07-25T00:03:26.820Z,1009.31
2017-07-25T00:04:36.348Z,1009.3
2017-07-25T00:05:45.547Z,1009.31
2017-07-25T00:06:54.573Z,1009.31
2017-07-25T00:08:04.108Z,1009.33
2017-07-25T00:09:13.312Z,1009.3
2017-07-25T00:10:22.843Z,1009.34
2017-07-25T00:11:32.372Z,1009.29
2017-07-25T00:12:41.473Z,1009.27
2017-07-25T00:13:51.321Z,1009.29
2017-07-25T00:15:00.522Z,1009.3
2017-07-25T00:16:10.382Z,1009.25
2017-07-25T00:17:20.561Z,1009.26
2017-07-25T00:18:29.914Z,1009.26
2017-07-25T00:19:39.440Z,1009.23
2017-07-25T00:20:48.651Z,1009.22
2017-07-25T00:21:57.533Z,1009.23
2017-07-25T00:23:07.380Z,1009.25
2017-07-25T00:24:16.737Z,1009.23
2017-07-25T00:25:26.263Z,1009.23
2017-07-25T00:26:35.792Z,1009.22
2017-07-25T00:27:45.004Z,1009.22
2017-07-25T00:28:54.207Z,1009.17
2017-07-25T00:30:03.109Z,1009.19
2017-07-25T00:31:13.291Z,1009.16
2017-07-25T00:32:22.831Z,1009.13
2017-07-25T00:33:32.036Z,1009.12
2017-07-25T00:34:41.562Z,1009.11
2017-07-25T00:35:50.816Z,1009.05
2017-07-25T00:37:00.034Z,1009.07
2017-07-25T00:38:08.911Z,1009.07
2017-07-25T00:39:18.768Z,1009.06
2017-07-25T00:40:27.976Z,1009.05
2017-07-25T00:41:37.805Z,1009.06
2017-07-25T00:42:46.684Z,1009.04
2017-07-25T00:43:55.569Z,1009.02
2017-07-25T00:45:04.778Z,1009
2017-07-25T00:46:13.660Z,1008.97
2017-07-25T00:47:23.019Z,1008.97
2017-07-25T00:48:32.224Z,1008.98
2017-07-25T00:49:42.076Z,1008.93
2017-07-25T00:50:51.601Z,1008.96
2017-07-25T00:52:00.500Z,1008.96
2017-07-25T00:53:10.407Z,1008.93
2017-07-25T00:54:19.609Z,1008.91
2017-07-25T00:55:29.135Z,1008.9
2017-07-25T00:56:38.984Z,1008.9
2017-07-25T00:57:47.867Z,1008.9
2017-07-25T00:58:57.219Z,1008.89
2017-07-25T01:00:07.072Z,1008.88
2017-07-25T01:01:16.598Z,1008.82
2017-07-25T01:02:25.802Z,1008.83
2017-07-25T01:03:34.678Z,1008.79
2017-07-25T01:04:44.505Z,1008.79
2017-07-25T01:05:53.385Z,1008.79
2017-07-25T01:07:02.264Z,1008.8
2017-07-25T01:08:11.473Z,1008.75
2017-07-25T01:09:21.320Z,1008.75
2017-07-25T01:10:31.000Z,1008.77
2017-07-25T01:11:40.849Z,1008.71
2017-07-25T01:12:50.723Z,1008.68
2017-07-25T01:14:00.277Z,1008.71
2017-07-25T01:15:09.482Z,1008.7
2017-07-25T01:16:18.838Z,1008.68
2017-07-25T01:17:28.045Z,1008.65
2017-07-25T01:18:37.248Z,1008.67
2017-07-25T01:19:47.110Z,1008.61
2017-07-25T01:20:55.990Z,1008.63
2017-07-25T01:22:05.991Z,1008.62
2017-07-25T01:23:15.524Z,1008.62
2017-07-25T01:24:24.735Z,1008.6
2017-07-25T01:25:34.271Z,1008.61
2017-07-25T01:26:43.481Z,1008.63
2017-07-25T01:27:53.309Z,1008.59
2017-07-25T01:29:02.198Z,1008.65
2017-07-25T01:30:12.060Z,1008.62
2017-07-25T01:31:21.595Z,1008.65
2017-07-25T01:32:30.481Z,1008.61
2017-07-25T01:33:40.008Z,1008.59
2017-07-25T01:34:49.211Z,1008.67
2017-07-25T01:35:58.416Z,1008.61
2017-07-25T01:37:08.265Z,1008.63
2017-07-25T01:38:17.794Z,1008.6
2017-07-25T01:39:26.826Z,1008.6
2017-07-25T01:40:36.030Z,1008.57
2017-07-25T01:41:45.234Z,1008.56
2017-07-25T01:42:54.438Z,1008.51
2017-07-25T01:44:03.965Z,1008.49
2017-07-25T01:45:12.997Z,1008.51
2017-07-25T01:46:22.204Z,1008.49
2017-07-25T01:47:31.411Z,1008.45
2017-07-25T01:48:40.618Z,1008.44
2017-07-25T01:49:50.143Z,1008.48
2017-07-25T01:50:59.544Z,1008.48
2017-07-25T01:52:08.751Z,1008.49
2017-07-25T01:53:17.953Z,1008.44
2017-07-25T01:54:27.480Z,1008.45
2017-07-25T01:55:36.687Z,1008.47
2017-07-25T01:56:46.192Z,1008.48
2017-07-25T01:57:55.722Z,1008.48
2017-07-25T01:59:04.926Z,1008.45
2017-07-25T02:00:14.778Z,1008.47
2017-07-25T02:01:23.990Z,1008.49
2017-07-25T02:02:33.726Z,1008.49
2017-07-25T02:03:42.607Z,1008.47
2017-07-25T02:04:51.500Z,1008.44
2017-07-25T02:06:01.029Z,1008.45
2017-07-25T02:07:10.238Z,1008.41
2017-07-25T02:08:19.912Z,1008.41
2017-07-25T02:09:28.794Z,1008.41
2017-07-25T02:10:38.326Z,1008.42
2017-07-25T02:11:47.854Z,1008.41
2017-07-25T02:12:57.060Z,1008.42
2017-07-25T02:14:06.892Z,1008.41
2017-07-25T02:15:16.095Z,1008.44
2017-07-25T02:16:24.979Z,1008.46
2017-07-25T02:17:34.504Z,1008.47
2017-07-25T02:18:44.032Z,1008.48
2017-07-25T02:19:53.382Z,1008.49
2017-07-25T02:21:03.231Z,1008.47
2017-07-25T02:22:12.111Z,1008.51
2017-07-25T02:23:21.317Z,1008.48
2017-07-25T02:24:30.198Z,1008.47
2017-07-25T02:25:39.455Z,1008.44
2017-07-25T02:26:48.662Z,1008.43
2017-07-25T02:27:57.543Z,1008.39
2017-07-25T02:29:06.756Z,1008.45
2017-07-25T02:30:16.612Z,1008.41
2017-07-25T02:31:26.445Z,1008.42
2017-07-25T02:32:35.982Z,1008.45
2017-07-25T02:33:45.845Z,1008.41
2017-07-25T02:34:55.718Z,1008.41
2017-07-25T02:36:05.250Z,1008.34
2017-07-25T02:37:15.254Z,1008.37
2017-07-25T02:38:24.459Z,1008.38
2017-07-25T02:39:33.342Z,1008.37
2017-07-25T02:40:43.518Z,1008.37
2017-07-25T02:41:53.368Z,1008.39
2017-07-25T02:43:02.903Z,1008.45
2017-07-25T02:44:12.773Z,1008.41
2017-07-25T02:45:21.659Z,1008.42
2017-07-25T02:46:31.512Z,1008.42
2017-07-25T02:47:41.041Z,1008.41
2017-07-25T02:48:50.346Z,1008.4
2017-07-25T02:50:00.526Z,1008.44
2017-07-25T02:51:10.700Z,1008.41
2017-07-25T02:52:20.229Z,1008.43
2017-07-25T02:53:29.439Z,1008.43
2017-07-25T02:54:38.480Z,1008.42
2017-07-25T02:55:48.006Z,1008.43
2017-07-25T02:56:57.535Z,1008.42
2017-07-25T02:58:07.075Z,1008.43
2017-07-25T02:59:16.924Z,1008.43
2017-07-25T03:00:26.548Z,1008.42
2017-07-25T03:01:35.425Z,1008.4
2017-07-25T03:02:44.958Z,1008.41
2017-07-25T03:03:54.166Z,1008.4
2017-07-25T03:05:03.704Z,1008.4
2017-07-25T03:06:13.558Z,1008.42
2017-07-25T03:07:22.435Z,1008.45
2017-07-25T03:08:31.319Z,1008.41
2017-07-25T03:09:40.854Z,1008.36
2017-07-25T03:10:50.079Z,1008.33
2017-07-25T03:11:59.336Z,1008.32
2017-07-25T03:13:09.190Z,1008.27
2017-07-25T03:14:18.401Z,1008.28
2017-07-25T03:15:27.952Z,1008.3
2017-07-25T03:16:37.804Z,1008.32
2017-07-25T03:17:46.938Z,1008.29
2017-07-25T03:18:56.145Z,1008.25
2017-07-25T03:20:05.673Z,1008.27
2017-07-25T03:21:15.200Z,1008.23
2017-07-25T03:22:24.419Z,1008.28
2017-07-25T03:23:34.043Z,1008.22
2017-07-25T03:24:43.568Z,1008.24
2017-07-25T03:25:53.108Z,1008.22
2017-07-25T03:27:02.636Z,1008.24
2017-07-25T03:28:11.844Z,1008.22
2017-07-25T03:29:20.875Z,1008.23
2017-07-25T03:30:30.083Z,1008.21
2017-07-25T03:31:39.942Z,1008.19
2017-07-25T03:32:49.148Z,1008.18
2017-07-25T03:33:58.682Z,1008.2
2017-07-25T03:35:08.523Z,1008.13
2017-07-25T03:36:18.048Z,1008.15
2017-07-25T03:37:26.930Z,1008.17
2017-07-25T03:38:36.455Z,1008.11
2017-07-25T03:39:45.980Z,1008.09
2017-07-25T03:40:55.234Z,1008.07
2017-07-25T03:42:05.103Z,1008.08
2017-07-25T03:43:14.020Z,1008.08
2017-07-25T03:44:23.226Z,1008.07
2017-07-25T03:45:33.076Z,1008.05
2017-07-25T03:46:42.923Z,1008.03
2017-07-25T03:47:52.776Z,1008.06
2017-07-25T03:49:02.302Z,1008.01
2017-07-25T03:50:11.507Z,1008.01
2017-07-25T03:51:20.710Z,1007.95
2017-07-25T03:52:29.589Z,1007.97
2017-07-25T03:53:38.801Z,1007.96
2017-07-25T03:54:48.330Z,1007.96
2017-07-25T03:55:57.209Z,1007.95
2017-07-25T03:57:06.736Z,1007.93
2017-07-25T03:58:15.941Z,1007.93
2017-07-25T03:59:25.146Z,1007.9
2017-07-25T04:00:34.357Z,1007.94
2017-07-25T04:01:43.565Z,1007.88
2017-07-25T04:02:52.770Z,1007.91
2017-07-25T04:04:02.127Z,1007.93
2017-07-25T04:05:11.659Z,1007.92
2017-07-25T04:06:20.546Z,1007.91
2017-07-25T04:07:30.091Z,1007.89
2017-07-25T04:08:38.975Z,1007.89
2017-07-25T04:09:48.330Z,1007.89
2017-07-25T04:10:57.538Z,1007.87
2017-07-25T04:12:06.422Z,1007.89
2017-07-25T04:13:15.621Z,1007.86
2017-07-25T04:14:24.508Z,1007.89
2017-07-25T04:15:34.041Z,1007.88
2017-07-25T04:16:43.247Z,1007.87
2017-07-25T04:17:52.448Z,1007.9
2017-07-25T04:19:01.651Z,1007.86
2017-07-25T04:20:10.865Z,1007.86
2017-07-25T04:21:20.705Z,1007.85
2017-07-25T04:22:30.562Z,1007.87
2017-07-25T04:23:40.085Z,1007.84
2017-07-25T04:24:49.612Z,1007.84
2017-07-25T04:25:58.817Z,1007.79
2017-07-25T04:27:08.268Z,1007.78
2017-07-25T04:28:17.472Z,1007.82
2017-07-25T04:29:27.325Z,1007.8
2017-07-25T04:30:36.523Z,1007.77
2017-07-25T04:31:46.051Z,1007.83
2017-07-25T04:32:55.677Z,1007.79
2017-07-25T04:34:04.886Z,1007.79
2017-07-25T04:35:14.093Z,1007.8
2017-07-25T04:36:23.300Z,1007.81
2017-07-25T04:37:33.149Z,1007.76
2017-07-25T04:38:42.031Z,1007.76
2017-07-25T04:39:51.556Z,1007.74
2017-07-25T04:41:00.760Z,1007.72
2017-07-25T04:42:09.972Z,1007.74
2017-07-25T04:43:19.503Z,1007.76
2017-07-25T04:44:28.820Z,1007.75
2017-07-25T04:45:37.701Z,1007.76
2017-07-25T04:46:46.904Z,1007.76
2017-07-25T04:47:56.110Z,1007.7
2017-07-25T04:49:05.639Z,1007.71
2017-07-25T04:50:14.571Z,1007.69
2017-07-25T04:51:23.771Z,1007.71
2017-07-25T04:52:32.973Z,1007.68
2017-07-25T04:53:42.182Z,1007.71
2017-07-25T04:54:51.714Z,1007.66
2017-07-25T04:56:01.340Z,1007.71
2017-07-25T04:57:10.222Z,1007.7
2017-07-25T04:58:19.111Z,1007.71
2017-07-25T04:59:28.316Z,1007.66
2017-07-25T05:00:37.212Z,1007.69
2017-07-25T05:01:46.473Z,1007.65
2017-07-25T05:02:55.685Z,1007.65
2017-07-25T05:04:05.224Z,1007.64
2017-07-25T05:05:14.439Z,1007.65
2017-07-25T05:06:23.649Z,1007.67
2017-07-25T05:07:32.682Z,1007.66
2017-07-25T05:08:42.559Z,1007.66
2017-07-25T05:09:52.087Z,1007.68
2017-07-25T05:11:01.295Z,1007.66
2017-07-25T05:12:10.824Z,1007.64
2017-07-25T05:13:19.922Z,1007.65
2017-07-25T05:14:29.126Z,1007.65
2017-07-25T05:15:38.006Z,1007.6
2017-07-25T05:16:47.537Z,1007.59
2017-07-25T05:17:56.770Z,1007.57
2017-07-25T05:19:06.078Z,1007.55
2017-07-25T05:20:15.604Z,1007.61
2017-07-25T05:21:24.492Z,1007.64
2017-07-25T05:22:34.025Z,1007.62
2017-07-25T05:23:43.550Z,1007.67
2017-07-25T05:24:52.734Z,1007.63
2017-07-25T05:26:01.622Z,1007.65
2017-07-25T05:27:11.162Z,1007.66
2017-07-25T05:28:20.367Z,1007.68
2017-07-25T05:29:30.225Z,1007.63
2017-07-25T05:30:40.062Z,1007.69
2017-07-25T05:31:48.943Z,1007.65
2017-07-25T05:32:58.149Z,1007.64
2017-07-25T05:34:07.674Z,1007.6
2017-07-25T05:35:17.526Z,1007.58
2017-07-25T05:36:26.624Z,1007.58
2017-07-25T05:37:35.830Z,1007.6
2017-07-25T05:38:44.710Z,1007.59
2017-07-25T05:39:54.237Z,1007.58
2017-07-25T05:41:04.106Z,1007.55
2017-07-25T05:42:13.788Z,1007.58
2017-07-25T05:43:23.002Z,1007.53
2017-07-25T05:44:31.885Z,1007.54
2017-07-25T05:45:41.091Z,1007.53
2017-07-25T05:46:49.975Z,1007.52
2017-07-25T05:47:59.508Z,1007.56
2017-07-25T05:49:08.388Z,1007.54
2017-07-25T05:50:17.593Z,1007.49
2017-07-25T05:51:26.798Z,1007.47
2017-07-25T05:52:35.675Z,1007.49
2017-07-25T05:53:45.316Z,1007.51
2017-07-25T05:54:54.550Z,1007.47
2017-07-25T05:56:03.434Z,1007.49
2017-07-25T05:57:12.645Z,1007.52
2017-07-25T05:58:21.528Z,1007.51
2017-07-25T05:59:30.413Z,1007.53
2017-07-25T06:00:39.947Z,1007.51
2017-07-25T06:01:49.475Z,1007.51
2017-07-25T06:02:58.358Z,1007.47
2017-07-25T06:04:08.209Z,1007.52
2017-07-25T06:05:18.115Z,1007.49
2017-07-25T06:06:27.000Z,1007.5
2017-07-25T06:07:36.535Z,1007.53
2017-07-25T06:08:45.745Z,1007.5
2017-07-25T06:09:55.279Z,1007.52
2017-07-25T06:11:05.284Z,1007.54
2017-07-25T06:12:15.139Z,1007.51
2017-07-25T06:13:24.999Z,1007.53
2017-07-25T06:14:34.531Z,1007.46
2017-07-25T06:15:44.063Z,1007.45
2017-07-25T06:16:53.787Z,1007.45
2017-07-25T06:18:03.640Z,1007.45
2017-07-25T06:19:12.849Z,1007.42
2017-07-25T06:20:22.378Z,1007.39
2017-07-25T06:21:31.926Z,1007.39
2017-07-25T06:22:41.136Z,1007.38
2017-07-25T06:23:50.026Z,1007.36
2017-07-25T06:24:59.232Z,1007.29
2017-07-25T06:26:08.438Z,1007.33
2017-07-25T06:27:17.320Z,1007.34
2017-07-25T06:28:26.948Z,1007.3
2017-07-25T06:29:36.163Z,1007.28
2017-07-25T06:30:45.364Z,1007.3
2017-07-25T06:31:54.572Z,1007.24
2017-07-25T06:33:04.100Z,1007.25
2017-07-25T06:34:13.633Z,1007.23
2017-07-25T06:35:23.160Z,1007.24
2017-07-25T06:36:32.689Z,1007.2
2017-07-25T06:37:41.897Z,1007.2
2017-07-25T06:38:51.104Z,1007.19
2017-07-25T06:39:59.994Z,1007.16
2017-07-25T06:41:10.177Z,1007.13
2017-07-25T06:42:19.720Z,1007.16
2017-07-25T06:43:28.609Z,1007.15
2017-07-25T06:44:38.469Z,1007.15
2017-07-25T06:45:47.680Z,1007.17
2017-07-25T06:46:56.891Z,1007.21
2017-07-25T06:48:06.096Z,1007.19
2017-07-25T06:49:15.632Z,1007.2
2017-07-25T06:50:25.171Z,1007.22
2017-07-25T06:51:35.026Z,1007.18
2017-07-25T06:52:44.238Z,1007.18
2017-07-25T06:53:53.771Z,1007.18
2017-07-25T06:55:03.319Z,1007.15
2017-07-25T06:56:12.530Z,1007.18
2017-07-25T06:57:22.059Z,1007.17
2017-07-25T06:58:31.267Z,1007.12
2017-07-25T06:59:40.950Z,1007.12
2017-07-25T07:00:50.156Z,1007.08
2017-07-25T07:01:59.689Z,1007.1
2017-07-25T07:03:09.547Z,1007.07
2017-07-25T07:04:19.411Z,1007.12
2017-07-25T07:05:28.642Z,1007.09
2017-07-25T07:06:38.495Z,1007.07
2017-07-25T07:07:47.703Z,1007.13
2017-07-25T07:08:57.556Z,1007.08
2017-07-25T07:10:07.110Z,1007.08
2017-07-25T07:11:16.797Z,1007.11
2017-07-25T07:12:26.739Z,1007.13
2017-07-25T07:13:35.648Z,1007.14
2017-07-25T07:14:45.105Z,1007.12
2017-07-25T07:15:54.030Z,1007.11
2017-07-25T07:17:03.288Z,1007.08
2017-07-25T07:18:12.499Z,1007.08
2017-07-25T07:19:22.030Z,1007.09
2017-07-25T07:20:31.558Z,1007.1
2017-07-25T07:21:40.441Z,1007.09
2017-07-25T07:22:49.805Z,1007.06
2017-07-25T07:23:59.669Z,1007.09
2017-07-25T07:25:09.200Z,1007.06
2017-07-25T07:26:18.739Z,1007.06
2017-07-25T07:27:27.658Z,1007.06
2017-07-25T07:28:37.333Z,1007.05
2017-07-25T07:29:46.553Z,1007.06
2017-07-25T07:30:55.775Z,1007.05
2017-07-25T07:32:05.319Z,1006.99
2017-07-25T07:33:15.748Z,1007.03
2017-07-25T07:34:25.436Z,1006.98
2017-07-25T07:35:35.019Z,1007.05
2017-07-25T07:36:43.941Z,1007.01
2017-07-25T07:37:53.169Z,1007.04
2017-07-25T07:39:02.384Z,1007
2017-07-25T07:40:12.224Z,1007.04
2017-07-25T07:41:21.434Z,1007.02
2017-07-25T07:42:30.316Z,1007.02
2017-07-25T07:43:39.523Z,1007.02
2017-07-25T07:44:48.733Z,1007.06
2017-07-25T07:45:58.261Z,1007.02
2017-07-25T07:47:08.441Z,1007.04
2017-07-25T07:48:17.647Z,1007.03
2017-07-25T07:49:26.887Z,1007.01
2017-07-25T07:50:36.417Z,1007.03
2017-07-25T07:51:45.878Z,1007.03
2017-07-25T07:52:54.798Z,1007.01
2017-07-25T07:54:04.008Z,1007.04
2017-07-25T07:55:13.866Z,1007.03
2017-07-25T07:56:23.067Z,1007.02
2017-07-25T07:57:32.431Z,1007.01
2017-07-25T07:58:41.652Z,1006.98
2017-07-25T07:59:50.861Z,1007.06
2017-07-25T08:00:59.743Z,1007.02
2017-07-25T08:02:09.597Z,1007.02
2017-07-25T08:03:18.959Z,1006.98
2017-07-25T08:04:28.488Z,1006.97
2017-07-25T08:05:37.386Z,1006.98
2017-07-25T08:06:46.596Z,1006.94
2017-07-25T08:07:55.480Z,1006.97
2017-07-25T08:09:05.498Z,1006.99
2017-07-25T08:10:15.032Z,1006.98
2017-07-25T08:11:24.561Z,1006.99
2017-07-25T08:12:33.765Z,1007
2017-07-25T08:13:42.651Z,1007
2017-07-25T08:14:52.704Z,1007.03
2017-07-25T08:16:01.594Z,1007.04
2017-07-25T08:17:10.489Z,1007
2017-07-25T08:18:19.707Z,1007.05
2017-07-25T08:19:28.931Z,1007.01
2017-07-25T08:20:38.151Z,1007.03
2017-07-25T08:21:47.688Z,1007.05
2017-07-25T08:22:56.899Z,1007.01
2017-07-25T08:24:06.121Z,1007
2017-07-25T08:25:15.976Z,1006.98
2017-07-25T08:26:25.883Z,1007.02
2017-07-25T08:27:35.410Z,1007.01
2017-07-25T08:28:44.941Z,1007
2017-07-25T08:29:54.154Z,1006.95
2017-07-25T08:31:03.046Z,1006.93
2017-07-25T08:32:13.150Z,1006.94
2017-07-25T08:33:23.003Z,1006.93
2017-07-25T08:34:32.539Z,1006.96
2017-07-25T08:35:41.429Z,1006.9
2017-07-25T08:36:50.650Z,1006.92
2017-07-25T08:37:59.584Z,1006.99
2017-07-25T08:39:08.791Z,1006.97
2017-07-25T08:40:18.324Z,1006.95
2017-07-25T08:41:27.536Z,1006.98
2017-07-25T08:42:36.748Z,1006.96
2017-07-25T08:43:46.107Z,1006.93
2017-07-25T08:44:55.022Z,1006.96
2017-07-25T08:46:04.553Z,1006.94
2017-07-25T08:47:14.089Z,1006.95
2017-07-25T08:48:23.628Z,1006.94
2017-07-25T08:49:33.158Z,1006.94
2017-07-25T08:50:42.690Z,1006.96
2017-07-25T08:51:51.895Z,1006.89
2017-07-25T08:53:01.105Z,1006.9
2017-07-25T08:54:10.640Z,1006.89
2017-07-25T08:55:20.049Z,1006.87
2017-07-25T08:56:29.905Z,1006.89
2017-07-25T08:57:39.435Z,1006.88
2017-07-25T08:58:48.964Z,1006.92
2017-07-25T08:59:58.183Z,1006.89
2017-07-25T09:01:08.015Z,1006.87
2017-07-25T09:02:17.953Z,1006.88
2017-07-25T09:03:27.495Z,1006.92
2017-07-25T09:04:36.702Z,1006.87
2017-07-25T09:05:45.587Z,1006.91
2017-07-25T09:06:55.002Z,1006.9
2017-07-25T09:08:04.539Z,1006.89
2017-07-25T09:09:13.769Z,1006.84
2017-07-25T09:10:23.316Z,1006.88
2017-07-25T09:11:32.847Z,1006.81
2017-07-25T09:12:42.428Z,1006.83
2017-07-25T09:13:51.637Z,1006.84
2017-07-25T09:15:00.845Z,1006.8
2017-07-25T09:16:10.379Z,1006.81
2017-07-25T09:17:19.588Z,1006.8
2017-07-25T09:18:29.096Z,1006.83
2017-07-25T09:19:37.991Z,1006.85
2017-07-25T09:20:46.895Z,1006.86
2017-07-25T09:21:56.117Z,1006.83
2017-07-25T09:23:05.363Z,1006.84
2017-07-25T09:24:15.668Z,1006.86
2017-07-25T09:25:24.914Z,1006.81
2017-07-25T09:26:34.509Z,1006.87
2017-07-25T09:27:44.043Z,1006.86
2017-07-25T09:28:53.595Z,1006.82
2017-07-25T09:30:03.332Z,1006.83
2017-07-25T09:31:12.924Z,1006.83
2017-07-25T09:32:22.505Z,1006.82
2017-07-25T09:33:32.059Z,1006.79
2017-07-25T09:34:41.263Z,1006.79
2017-07-25T09:35:51.126Z,1006.8
2017-07-25T09:37:00.018Z,1006.77
2017-07-25T09:38:08.923Z,1006.76
2017-07-25T09:39:17.822Z,1006.74
2017-07-25T09:40:26.709Z,1006.74
2017-07-25T09:41:35.916Z,1006.72
2017-07-25T09:42:44.806Z,1006.7
2017-07-25T09:43:53.698Z,1006.74
2017-07-25T09:45:02.909Z,1006.73
2017-07-25T09:46:12.119Z,1006.7
2017-07-25T09:47:21.115Z,1006.76
2017-07-25T09:48:30.650Z,1006.72
2017-07-25T09:49:39.535Z,1006.72
2017-07-25T09:50:49.074Z,1006.68
2017-07-25T09:51:58.284Z,1006.69
2017-07-25T09:53:07.590Z,1006.69
2017-07-25T09:54:17.137Z,1006.65
2017-07-25T09:55:26.671Z,1006.65
2017-07-25T09:56:35.887Z,1006.67
2017-07-25T09:57:44.784Z,1006.62
2017-07-25T09:58:53.773Z,1006.62
2017-07-25T10:00:03.309Z,1006.61
2017-07-25T10:01:12.851Z,1006.61
2017-07-25T10:02:22.784Z,1006.56
2017-07-25T10:03:32.000Z,1006.55
2017-07-25T10:04:41.042Z,1006.55
2017-07-25T10:05:50.715Z,1006.57
2017-07-25T10:07:00.499Z,1006.55
2017-07-25T10:08:09.728Z,1006.51
2017-07-25T10:09:18.954Z,1006.54
2017-07-25T10:10:28.959Z,1006.5
2017-07-25T10:11:38.814Z,1006.51
2017-07-25T10:12:47.707Z,1006.55
2017-07-25T10:13:57.579Z,1006.55
2017-07-25T10:15:07.113Z,1006.55
2017-07-25T10:16:17.168Z,1006.53
2017-07-25T10:17:27.073Z,1006.55
2017-07-25T10:18:36.282Z,1006.54
2017-07-25T10:19:45.171Z,1006.51
2017-07-25T10:20:54.086Z,1006.55
2017-07-25T10:22:03.685Z,1006.53
2017-07-25T10:23:13.292Z,1006.57
2017-07-25T10:24:22.568Z,1006.51
2017-07-25T10:25:32.501Z,1006.5
2017-07-25T10:26:42.146Z,1006.47
2017-07-25T10:27:51.451Z,1006.44
2017-07-25T10:29:00.722Z,1006.49
2017-07-25T10:30:10.298Z,1006.47
2017-07-25T10:31:19.195Z,1006.48
2017-07-25T10:32:28.406Z,1006.46
2017-07-25T10:33:37.773Z,1006.38
2017-07-25T10:34:46.661Z,1006.38
2017-07-25T10:35:55.870Z,1006.38
2017-07-25T10:37:05.406Z,1006.35
2017-07-25T10:38:14.937Z,1006.36
2017-07-25T10:39:23.982Z,1006.36
2017-07-25T10:40:33.275Z,1006.34
2017-07-25T10:41:42.852Z,1006.34
2017-07-25T10:42:54.188Z,1006.3
2017-07-25T10:44:03.452Z,1006.33
2017-07-25T10:45:12.649Z,1006.36
2017-07-25T10:46:21.651Z,1006.29
2017-07-25T10:47:31.178Z,1006.3
2017-07-25T10:48:40.621Z,1006.26
2017-07-25T10:49:50.197Z,1006.25
2017-07-25T10:50:59.518Z,1006.21
2017-07-25T10:52:09.089Z,1006.22
2017-07-25T10:53:19.000Z,1006.2
2017-07-25T10:54:28.860Z,1006.26
2017-07-25T10:55:38.078Z,1006.27
2017-07-25T10:56:47.436Z,1006.25
2017-07-25T10:57:56.981Z,1006.28
2017-07-25T10:59:05.864Z,1006.24
2017-07-25T11:00:15.719Z,1006.24
2017-07-25T11:01:24.612Z,1006.22
2017-07-25T11:02:34.222Z,1006.22
2017-07-25T11:03:43.432Z,1006.19
2017-07-25T11:04:52.654Z,1006.18
2017-07-25T11:06:01.860Z,1006.22
2017-07-25T11:07:10.749Z,1006.18
2017-07-25T11:08:20.533Z,1006.15
2017-07-25T11:09:30.398Z,1006.17
2017-07-25T11:10:39.606Z,1006.13
2017-07-25T11:11:48.817Z,1006.14
2017-07-25T11:12:58.032Z,1006.14
2017-07-25T11:14:07.449Z,1006.07
2017-07-25T11:15:16.661Z,1006.09
2017-07-25T11:16:25.550Z,1006.09
2017-07-25T11:17:34.763Z,1006.11
2017-07-25T11:18:43.975Z,1006.1
2017-07-25T11:19:53.239Z,1006.05
2017-07-25T11:21:03.110Z,1006.08
2017-07-25T11:22:12.341Z,1006.03
2017-07-25T11:23:22.232Z,1006.02
2017-07-25T11:24:31.490Z,1005.99
2017-07-25T11:25:40.578Z,1005.99
2017-07-25T11:26:49.792Z,1006.01
2017-07-25T11:27:59.683Z,1005.98
2017-07-25T11:29:09.289Z,1005.95
2017-07-25T11:30:18.248Z,1005.96
2017-07-25T11:31:27.694Z,1005.97
2017-07-25T11:32:36.602Z,1005.92
2017-07-25T11:33:45.845Z,1005.97
2017-07-25T11:34:54.821Z,1005.96
2017-07-25T11:36:04.767Z,1006.01
2017-07-25T11:37:14.245Z,1006.05
2017-07-25T11:38:23.525Z,1006.06
2017-07-25T11:39:32.462Z,1006.06
2017-07-25T11:40:41.715Z,1006.06
2017-07-25T11:41:51.251Z,1006.12
2017-07-25T11:43:00.781Z,1006.07
2017-07-25T11:44:10.011Z,1006.06
2017-07-25T11:45:19.323Z,1006.05
2017-07-25T11:46:28.253Z,1006.06
2017-07-25T11:47:37.528Z,1006.07
2017-07-25T11:48:46.838Z,1006.03
2017-07-25T11:49:56.087Z,1006.01
2017-07-25T11:51:04.974Z,1005.99
2017-07-25T11:52:13.967Z,1006
2017-07-25T11:53:23.177Z,1006
2017-07-25T11:54:33.011Z,1005.97
2017-07-25T11:55:42.228Z,1006.02
2017-07-25T11:56:51.757Z,1006.05
2017-07-25T11:58:00.649Z,1005.97
2017-07-25T11:59:09.534Z,1005.98
2017-07-25T12:00:19.216Z,1005.96
2017-07-25T12:01:28.751Z,1005.98
2017-07-25T12:02:37.974Z,1005.96
2017-07-25T12:03:47.576Z,1005.93
2017-07-25T12:04:56.833Z,1005.97
2017-07-25T12:06:06.529Z,1006.02
2017-07-25T12:07:15.762Z,1005.99
2017-07-25T12:08:25.051Z,1005.98
2017-07-25T12:09:34.311Z,1005.96
2017-07-25T12:10:43.563Z,1005.98
2017-07-25T12:11:52.685Z,1005.99
2017-07-25T12:13:01.973Z,1005.97
2017-07-25T12:14:11.241Z,1005.97
2017-07-25T12:15:20.450Z,1005.97
2017-07-25T12:16:30.316Z,1005.92
2017-07-25T12:17:39.836Z,1005.95
2017-07-25T12:18:49.381Z,1005.93
2017-07-25T12:19:58.954Z,1005.97
2017-07-25T12:21:08.581Z,1006.03
2017-07-25T12:22:17.880Z,1005.96
2017-07-25T12:23:27.022Z,1005.97
2017-07-25T12:24:36.347Z,1005.89
2017-07-25T12:25:46.298Z,1005.92
2017-07-25T12:26:55.560Z,1005.89
2017-07-25T12:28:04.835Z,1005.92
2017-07-25T12:29:14.457Z,1005.92
2017-07-25T12:30:24.045Z,1005.86
2017-07-25T12:31:33.325Z,1005.87
2017-07-25T12:32:42.291Z,1005.86
2017-07-25T12:33:51.579Z,1005.89
2017-07-25T12:35:01.383Z,1005.86
2017-07-25T12:36:10.277Z,1005.91
2017-07-25T12:37:19.177Z,1005.94
2017-07-25T12:38:28.725Z,1005.87
2017-07-25T12:39:37.948Z,1005.87
2017-07-25T12:40:47.162Z,1005.88
2017-07-25T12:41:57.046Z,1005.84
2017-07-25T12:43:06.911Z,1005.85
2017-07-25T12:44:16.457Z,1005.8
2017-07-25T12:45:25.988Z,1005.78
2017-07-25T12:46:35.410Z,1005.77
2017-07-25T12:47:44.621Z,1005.79
2017-07-25T12:48:53.833Z,1005.78
2017-07-25T12:50:03.040Z,1005.73
2017-07-25T12:51:11.928Z,1005.77
2017-07-25T12:52:21.190Z,1005.72
2017-07-25T12:53:30.071Z,1005.7
2017-07-25T12:54:38.957Z,1005.73
2017-07-25T12:55:49.135Z,1005.73
2017-07-25T12:56:58.987Z,1005.66
2017-07-25T12:58:08.721Z,1005.66
2017-07-25T12:59:18.573Z,1005.64
2017-07-25T13:00:27.792Z,1005.62
2017-07-25T13:01:36.676Z,1005.61
2017-07-25T13:02:46.206Z,1005.59
2017-07-25T13:03:55.243Z,1005.64
2017-07-25T13:05:04.131Z,1005.59
2017-07-25T13:06:13.389Z,1005.63
2017-07-25T13:07:22.274Z,1005.61
2017-07-25T13:08:31.485Z,1005.6
2017-07-25T13:09:41.461Z,1005.63
2017-07-25T13:10:50.991Z,1005.62
2017-07-25T13:12:00.525Z,1005.62
2017-07-25T13:13:10.057Z,1005.62
2017-07-25T13:14:20.235Z,1005.66
2017-07-25T13:15:29.594Z,1005.66
2017-07-25T13:16:39.130Z,1005.63
2017-07-25T13:17:48.709Z,1005.61
2017-07-25T13:18:57.918Z,1005.63
2017-07-25T13:20:07.126Z,1005.56
2017-07-25T13:21:16.162Z,1005.67
2017-07-25T13:22:26.041Z,1005.66
2017-07-25T13:23:35.255Z,1005.67
2017-07-25T13:24:44.791Z,1005.7
2017-07-25T13:25:54.324Z,1005.67
2017-07-25T13:27:04.024Z,1005.65
2017-07-25T13:28:13.235Z,1005.66
2017-07-25T13:29:22.765Z,1005.71
2017-07-25T13:30:32.326Z,1005.71
2017-07-25T13:31:41.534Z,1005.71
2017-07-25T13:32:50.892Z,1005.74
2017-07-25T13:34:00.102Z,1005.74
2017-07-25T13:35:09.340Z,1005.72
2017-07-25T13:36:18.552Z,1005.78
2017-07-25T13:37:28.085Z,1005.85
2017-07-25T13:38:36.970Z,1005.77
2017-07-25T13:39:45.860Z,1005.82
2017-07-25T13:40:55.394Z,1005.78
2017-07-25T13:42:04.930Z,1005.84
2017-07-25T13:43:14.146Z,1005.78
2017-07-25T13:44:23.779Z,1005.79
2017-07-25T13:45:32.990Z,1005.8
2017-07-25T13:46:42.224Z,1005.74
2017-07-25T13:47:51.762Z,1005.79
2017-07-25T13:49:01.299Z,1005.78
2017-07-25T13:50:10.667Z,1005.84
2017-07-25T13:51:20.215Z,1005.82
2017-07-25T13:52:30.069Z,1005.86
2017-07-25T13:53:38.962Z,1005.84
2017-07-25T13:54:48.502Z,1005.82
2017-07-25T13:55:58.184Z,1005.83
2017-07-25T13:57:07.408Z,1005.83
2017-07-25T13:58:16.680Z,1005.82
2017-07-25T13:59:25.903Z,1005.76
2017-07-25T14:00:34.792Z,1005.75
2017-07-25T14:01:44.658Z,1005.77
2017-07-25T14:02:54.512Z,1005.77